createdAt,value
2019-05-13T00:00:15.460Z,43.62
2019-05-13T00:02:44.150Z,43.80
2019-05-13T00:05:14.640Z,43.91
2019-05-13T00:07:43.815Z,43.93
2019-05-13T00:10:14.671Z,44.37
2019-05-13T00:12:44.507Z,44.40
2019-05-13T00:15:14.030Z,44.31
2019-05-13T00:17:44.643Z,44.25
2019-05-13T00:20:14.087Z,44.21
2019-05-13T00:22:44.764Z,44.23
2019-05-13T00:25:14.475Z,44.39
2019-05-13T00:27:44.458Z,44.58
2019-05-13T00:30:14.483Z,44.90
2019-05-13T00:32:44.525Z,44.63
2019-05-13T00:35:14.190Z,45.39
2019-05-13T00:37:44.298Z,45.90
2019-05-13T00:40:14.429Z,46.27
2019-05-13T00:42:44.135Z,46.03
2019-05-13T00:45:14.513Z,45.76
2019-05-13T00:47:43.773Z,49.17
2019-05-13T00:50:14.143Z,50.25
2019-05-13T00:52:44.923Z,50.02
2019-05-13T00:55:14.824Z,48.86
2019-05-13T00:57:44.116Z,47.95
2019-05-13T01:00:14.141Z,47.86
2019-05-13T01:02:44.720Z,47.04
2019-05-13T01:05:14.664Z,47.01
2019-05-13T01:07:44.452Z,46.64
2019-05-13T01:10:13.436Z,46.58
2019-05-13T01:12:44.003Z,46.26
2019-05-13T01:15:13.509Z,45.94
2019-05-13T01:17:44.692Z,45.58
2019-05-13T01:20:14.422Z,45.49
2019-05-13T01:22:44.107Z,45.28
2019-05-13T01:25:14.436Z,45.08
2019-05-13T01:27:44.178Z,44.65
2019-05-13T01:30:13.383Z,44.76
2019-05-13T01:32:44.602Z,45.30
2019-05-13T01:35:14.632Z,45.78
2019-05-13T01:37:45.912Z,46.56
2019-05-13T01:40:13.656Z,46.46
2019-05-13T01:42:44.391Z,47.12
2019-05-13T01:45:13.716Z,46.94
2019-05-13T01:47:43.992Z,46.92
2019-05-13T01:50:14.400Z,46.47
2019-05-13T01:52:44.587Z,48.10
2019-05-13T01:55:14.569Z,47.64
2019-05-13T01:57:44.317Z,47.44
2019-05-13T02:00:14.077Z,46.93
2019-05-13T02:02:44.511Z,46.63
2019-05-13T02:05:13.964Z,46.83
2019-05-13T02:07:54.500Z,46.70
2019-05-13T02:10:14.604Z,46.22
2019-05-13T02:12:44.589Z,49.17
2019-05-13T02:15:14.482Z,48.57
2019-05-13T02:17:44.582Z,43.35
2019-05-13T02:20:14.752Z,42.50
2019-05-13T02:22:44.562Z,50.54
2019-05-13T02:25:13.975Z,49.94
2019-05-13T02:27:43.978Z,49.68
2019-05-13T02:30:16.164Z,49.35
2019-05-13T02:32:43.209Z,50.50
2019-05-13T02:35:13.841Z,51.89
2019-05-13T02:37:43.368Z,51.70
2019-05-13T02:40:13.438Z,50.99
2019-05-13T02:42:43.687Z,50.32
2019-05-13T02:45:12.745Z,50.14
2019-05-13T02:47:44.123Z,50.60
2019-05-13T02:50:12.672Z,51.28
2019-05-13T02:52:44.295Z,50.78
2019-05-13T02:55:12.823Z,50.57
2019-05-13T02:57:43.685Z,50.44
2019-05-13T03:00:12.924Z,50.08
2019-05-13T03:02:43.811Z,50.17
2019-05-13T03:05:13.709Z,50.48
2019-05-13T03:07:43.137Z,50.33
2019-05-13T03:10:13.494Z,49.83
2019-05-13T03:12:43.028Z,49.80
2019-05-13T03:15:13.330Z,50.06
2019-05-13T03:18:03.176Z,50.18
2019-05-13T03:20:33.349Z,50.23
2019-05-13T03:23:03.028Z,50.50
2019-05-13T03:25:33.059Z,50.56
2019-05-13T03:28:03.265Z,50.87
2019-05-13T03:30:35.234Z,51.03
2019-05-13T03:33:10.342Z,50.90
2019-05-13T03:35:36.645Z,50.82
2019-05-13T03:38:03.601Z,50.89
2019-05-13T03:40:33.241Z,51.03
2019-05-13T03:43:03.081Z,51.18
2019-05-13T03:45:32.721Z,51.12
2019-05-13T03:48:04.129Z,50.38
2019-05-13T03:50:34.683Z,49.23
2019-05-13T03:53:03.051Z,48.96
2019-05-13T03:55:32.883Z,48.70
2019-05-13T03:58:03.024Z,48.39
2019-05-13T04:00:32.392Z,48.10
2019-05-13T04:03:03.323Z,47.80
2019-05-13T04:05:33.434Z,47.61
2019-05-13T04:08:03.082Z,47.43
2019-05-13T04:10:33.467Z,47.30
2019-05-13T04:13:03.786Z,47.70
2019-05-13T04:15:32.588Z,47.48
2019-05-13T04:18:02.650Z,47.09
2019-05-13T04:20:33.266Z,46.79
2019-05-13T04:23:02.957Z,46.49
2019-05-13T04:25:32.347Z,46.14
2019-05-13T04:28:03.282Z,45.55
2019-05-13T04:30:33.002Z,44.74
2019-05-13T04:33:02.538Z,44.23
2019-05-13T04:35:33.314Z,43.85
2019-05-13T04:38:03.463Z,43.24
2019-05-13T04:40:33.137Z,42.73
2019-05-13T04:43:03.025Z,42.13
2019-05-13T04:45:32.868Z,41.65
2019-05-13T04:48:03.326Z,41.25
2019-05-13T04:50:32.956Z,40.90
2019-05-13T04:53:03.209Z,40.09
2019-05-13T04:55:33.270Z,39.36
2019-05-13T04:58:03.538Z,38.58
2019-05-13T05:01:04.711Z,38.00
2019-05-13T05:03:44.658Z,37.77
2019-05-13T05:06:29.239Z,37.73
2019-05-13T05:09:25.965Z,37.35
2019-05-13T05:12:51.891Z,37.47
2019-05-13T05:16:13.770Z,36.05
2019-05-13T05:19:23.726Z,35.03
2019-05-13T05:21:58.802Z,34.67
2019-05-13T05:25:02.850Z,33.58
2019-05-13T05:28:03.508Z,33.02
2019-05-13T05:31:02.455Z,32.57
2019-05-13T05:33:56.698Z,32.04
2019-05-13T05:37:01.462Z,31.26
2019-05-13T05:39:31.526Z,30.56
2019-05-13T05:42:02.171Z,30.37
2019-05-13T05:44:32.491Z,29.81
2019-05-13T05:47:02.751Z,29.65
2019-05-13T05:49:32.163Z,29.31
2019-05-13T05:52:02.042Z,28.75
2019-05-13T05:54:32.753Z,28.33
2019-05-13T05:57:02.243Z,27.76
2019-05-13T05:59:32.007Z,26.99
2019-05-13T06:02:01.971Z,26.33
2019-05-13T06:04:32.510Z,25.83
2019-05-13T06:07:03.243Z,25.61
2019-05-13T06:09:32.221Z,25.41
2019-05-13T06:12:01.746Z,24.95
2019-05-13T06:14:32.741Z,24.47
2019-05-13T06:17:02.737Z,23.43
2019-05-13T06:19:31.876Z,21.84
2019-05-13T06:22:03.171Z,20.71
2019-05-13T06:24:32.014Z,19.82
2019-05-13T06:27:01.570Z,17.58
2019-05-13T06:29:31.764Z,16.71
2019-05-13T06:32:15.385Z,15.90
2019-05-13T06:34:32.647Z,16.17
2019-05-13T06:37:01.817Z,16.29
2019-05-13T06:39:31.712Z,15.84
2019-05-13T06:42:02.670Z,15.08
2019-05-13T06:44:31.820Z,16.12
2019-05-13T06:47:02.558Z,16.15
2019-05-13T06:49:32.364Z,15.63
2019-05-13T06:52:01.662Z,12.93
2019-05-13T06:54:32.881Z,10.34
2019-05-13T06:57:04.626Z,7.82
2019-05-13T06:59:31.874Z,7.75
2019-05-13T07:02:02.139Z,7.24
2019-05-13T07:04:32.615Z,6.84
2019-05-13T07:07:12.292Z,6.96
2019-05-13T07:09:32.301Z,8.13
2019-05-13T07:12:02.908Z,9.05
2019-05-13T07:14:32.351Z,9.74
2019-05-13T07:17:02.103Z,10.63
2019-05-13T07:19:32.392Z,13.00
2019-05-13T07:22:02.784Z,13.68
2019-05-13T07:24:32.202Z,13.21
2019-05-13T07:27:01.783Z,14.61
2019-05-13T07:29:32.491Z,15.03
2019-05-13T07:32:01.948Z,14.43
2019-05-13T07:34:33.558Z,15.89
2019-05-13T07:37:01.938Z,15.11
2019-05-13T07:39:32.699Z,15.40
2019-05-13T07:42:05.429Z,15.04
2019-05-13T07:44:32.574Z,15.42
2019-05-13T07:47:03.378Z,15.88
2019-05-13T07:49:31.769Z,15.47
2019-05-13T07:52:01.683Z,17.55
2019-05-13T07:54:32.891Z,17.17
2019-05-13T07:57:01.881Z,16.71
2019-05-13T07:59:31.811Z,18.47
2019-05-13T08:02:02.075Z,18.91
2019-05-13T08:04:33.457Z,17.84
2019-05-13T08:07:02.239Z,16.30
2019-05-13T08:09:31.914Z,16.63
2019-05-13T08:12:09.883Z,16.85
2019-05-13T08:14:32.893Z,15.89
2019-05-13T08:17:02.634Z,15.90
2019-05-13T08:19:32.593Z,14.81
2019-05-13T08:22:02.293Z,14.81
2019-05-13T08:24:31.562Z,15.68
2019-05-13T08:27:02.217Z,15.65
2019-05-13T08:29:32.703Z,14.92
2019-05-13T08:32:02.757Z,13.23
2019-05-13T08:34:32.876Z,12.75
2019-05-13T08:37:02.738Z,10.64
2019-05-13T08:39:36.325Z,11.58
2019-05-13T08:42:12.778Z,14.32
2019-05-13T08:44:32.626Z,15.89
2019-05-13T08:47:03.008Z,13.42
2019-05-13T08:49:32.515Z,14.28
2019-05-13T08:52:01.786Z,15.47
2019-05-13T08:54:32.828Z,15.29
2019-05-13T08:57:02.813Z,14.22
2019-05-13T08:59:31.900Z,14.28
2019-05-13T09:02:03.053Z,15.09
2019-05-13T09:04:31.608Z,15.21
2019-05-13T09:07:02.200Z,15.07
2019-05-13T09:12:02.593Z,14.42
2019-05-13T09:14:32.518Z,15.36
2019-05-13T09:17:01.957Z,13.35
2019-05-13T09:19:32.275Z,14.72
2019-05-13T09:22:03.031Z,12.49
2019-05-13T09:24:37.113Z,10.70
2019-05-13T09:27:02.153Z,11.06
2019-05-13T09:29:32.235Z,14.00
2019-05-13T09:32:03.675Z,15.49
2019-05-13T09:34:32.950Z,15.69
2019-05-13T09:39:32.500Z,17.70
2019-05-13T09:42:02.594Z,14.61
2019-05-13T09:44:32.748Z,14.63
2019-05-13T09:47:02.611Z,14.60
2019-05-13T09:49:32.994Z,15.99
2019-05-13T09:52:02.076Z,14.82
2019-05-13T09:54:32.608Z,14.99
2019-05-13T09:57:01.795Z,16.96
2019-05-13T09:59:31.928Z,16.11
2019-05-13T10:02:02.867Z,15.12
2019-05-13T10:04:31.768Z,16.68
2019-05-13T10:07:02.270Z,15.45
2019-05-13T10:09:32.750Z,18.09
2019-05-13T10:12:03.047Z,15.37
2019-05-13T10:14:32.632Z,16.55
2019-05-13T10:17:06.033Z,15.54
2019-05-13T10:19:32.493Z,14.98
2019-05-13T10:22:01.124Z,13.48
2019-05-13T10:24:32.320Z,12.52
2019-05-13T10:27:02.379Z,13.11
2019-05-13T10:29:31.680Z,11.11
2019-05-13T10:32:02.820Z,10.20
2019-05-13T10:34:32.129Z,10.44
2019-05-13T10:37:02.209Z,13.05
2019-05-13T10:39:31.143Z,11.40
2019-05-13T10:42:03.032Z,14.55
2019-05-13T10:44:29.912Z,15.62
2019-05-13T10:46:58.422Z,15.28
2019-05-13T10:49:26.930Z,15.27
2019-05-13T10:51:55.521Z,15.00
2019-05-13T10:54:24.038Z,16.05
2019-05-13T10:56:56.139Z,15.66
2019-05-13T10:59:23.233Z,16.87
2019-05-13T11:01:52.162Z,17.40
2019-05-13T11:04:22.239Z,18.19
2019-05-13T11:06:52.373Z,16.17
2019-05-13T11:09:21.778Z,16.37
2019-05-13T11:11:52.801Z,14.94
2019-05-13T11:14:21.933Z,16.28
2019-05-13T11:16:52.371Z,14.76
2019-05-13T11:19:22.886Z,13.36
2019-05-13T11:21:51.437Z,16.43
2019-05-13T11:24:22.132Z,14.20
2019-05-13T11:26:53.060Z,15.13
2019-05-13T11:29:23.010Z,13.77
2019-05-13T11:31:52.668Z,14.66
2019-05-13T11:34:22.285Z,16.10
2019-05-13T11:36:53.308Z,16.36
2019-05-13T11:39:21.869Z,15.92
2019-05-13T11:41:50.811Z,15.59
2019-05-13T11:44:22.480Z,15.77
2019-05-13T11:46:52.755Z,15.57
2019-05-13T11:49:19.877Z,15.03
2019-05-13T11:51:48.593Z,16.06
2019-05-13T11:54:17.121Z,16.36
2019-05-13T11:56:49.737Z,14.68
2019-05-13T11:59:15.909Z,17.27
2019-05-13T12:01:44.498Z,15.78
2019-05-13T12:04:13.040Z,14.50
2019-05-13T12:06:48.654Z,16.58
2019-05-13T12:09:13.120Z,16.37
2019-05-13T12:11:42.071Z,14.55
2019-05-13T12:14:37.014Z,13.49
2019-05-13T12:16:42.309Z,13.35
2019-05-13T12:19:12.003Z,14.54
2019-05-13T12:21:43.353Z,15.48
2019-05-13T12:24:11.475Z,14.49
2019-05-13T12:26:43.018Z,13.50
2019-05-13T12:29:18.394Z,14.00
2019-05-13T12:31:40.674Z,14.25
2019-05-13T12:34:12.761Z,14.64
2019-05-13T12:36:43.016Z,14.18
2019-05-13T12:39:14.006Z,13.98
2019-05-13T12:41:42.786Z,13.27
2019-05-13T12:44:12.952Z,14.61
2019-05-13T12:46:41.520Z,12.21
2019-05-13T12:49:14.346Z,12.18
2019-05-13T12:51:43.922Z,11.56
2019-05-13T12:54:14.073Z,11.61
2019-05-13T12:56:42.993Z,13.35
2019-05-13T12:59:13.253Z,13.19
2019-05-13T13:01:42.243Z,13.60
2019-05-13T13:04:12.314Z,13.44
2019-05-13T13:06:45.126Z,15.49
2019-05-13T13:09:12.751Z,13.68
2019-05-13T13:11:43.584Z,13.87
2019-05-13T13:14:15.459Z,13.50
2019-05-13T13:16:43.250Z,14.69
2019-05-13T13:19:14.625Z,14.19
2019-05-13T13:21:42.285Z,13.98
2019-05-13T13:24:12.369Z,14.38
2019-05-13T13:26:42.734Z,15.39
2019-05-13T13:29:11.707Z,15.45
2019-05-13T13:31:43.136Z,17.44
2019-05-13T13:34:17.072Z,17.39
2019-05-13T13:36:46.142Z,14.54
2019-05-13T13:39:14.732Z,13.90
2019-05-13T13:44:13.461Z,15.57
2019-05-13T13:46:44.388Z,13.89
2019-05-13T13:49:13.140Z,14.81
2019-05-13T13:51:44.713Z,16.21
2019-05-13T13:54:12.373Z,15.34
2019-05-13T13:56:43.900Z,16.25
2019-05-13T13:59:13.758Z,17.18
2019-05-13T14:01:41.973Z,14.39
2019-05-13T14:04:15.901Z,16.50
2019-05-13T14:06:25.037Z,14.07
2019-05-13T14:06:32.611Z,14.91
2019-05-13T14:06:58.555Z,15.65
2019-05-13T14:09:12.014Z,16.97
2019-05-13T14:11:42.031Z,17.08
2019-05-13T14:14:12.420Z,18.42
2019-05-13T14:16:42.764Z,16.65
2019-05-13T14:19:11.381Z,18.43
2019-05-13T14:21:41.638Z,16.57
2019-05-13T14:24:12.067Z,16.34
2019-05-13T14:26:43.449Z,15.99
2019-05-13T14:29:12.306Z,16.75
2019-05-13T14:31:41.518Z,16.75
2019-05-13T14:34:11.471Z,16.24
2019-05-13T14:36:40.185Z,17.13
2019-05-13T14:39:08.783Z,16.52
2019-05-13T14:41:37.336Z,17.24
2019-05-13T14:44:05.965Z,16.57
2019-05-13T14:46:46.687Z,15.55
2019-05-13T14:49:05.245Z,16.13
2019-05-13T14:51:33.780Z,15.75
2019-05-13T14:54:02.842Z,16.26
2019-05-13T14:56:32.398Z,17.13
2019-05-13T14:59:02.691Z,18.43
2019-05-13T15:01:31.958Z,15.92
2019-05-13T15:04:02.812Z,16.39
2019-05-13T15:06:32.723Z,18.49
2019-05-13T15:09:01.752Z,19.35
2019-05-13T15:11:32.418Z,17.87
2019-05-13T15:14:02.437Z,17.75
2019-05-13T15:16:31.731Z,18.22
2019-05-13T15:19:01.582Z,16.28
2019-05-13T15:21:32.093Z,17.07
2019-05-13T15:24:02.293Z,16.91
2019-05-13T15:26:31.467Z,18.12
2019-05-13T15:29:04.654Z,17.63
2019-05-13T15:31:31.617Z,16.69
2019-05-13T15:34:02.528Z,16.02
2019-05-13T15:36:31.570Z,18.10
2019-05-13T15:39:01.381Z,16.77
2019-05-13T15:41:30.064Z,16.47
2019-05-13T15:43:58.633Z,16.73
2019-05-13T15:46:27.146Z,17.12
2019-05-13T15:48:55.802Z,18.33
2019-05-13T15:51:24.320Z,18.68
2019-05-13T15:53:52.831Z,16.76
2019-05-13T15:56:22.425Z,19.50
2019-05-13T15:58:53.037Z,18.04
2019-05-13T16:01:22.895Z,19.19
2019-05-13T16:03:52.388Z,18.78
2019-05-13T16:06:21.621Z,18.55
2019-05-13T16:08:51.944Z,18.29
2019-05-13T16:11:21.940Z,17.28
2019-05-13T16:13:51.892Z,18.36
2019-05-13T16:16:22.008Z,18.47
2019-05-13T16:18:51.536Z,19.16
2019-05-13T16:21:20.292Z,20.88
2019-05-13T16:23:48.812Z,19.78
2019-05-13T16:26:17.338Z,18.57
2019-05-13T16:28:45.873Z,19.13
2019-05-13T16:31:14.410Z,19.62
2019-05-13T16:33:42.916Z,18.55
2019-05-13T16:36:12.788Z,18.89
2019-05-13T16:38:42.248Z,19.73
2019-05-13T16:41:12.475Z,19.78
2019-05-13T16:43:42.568Z,19.01
2019-05-13T16:46:12.813Z,19.40
2019-05-13T16:48:41.757Z,18.79
2019-05-13T16:51:12.419Z,19.65
2019-05-13T16:53:42.104Z,20.47
2019-05-13T16:56:25.351Z,20.19
2019-05-13T16:58:41.883Z,19.50
2019-05-13T17:01:11.845Z,19.95
2019-05-13T17:03:41.625Z,19.36
2019-05-13T17:06:12.458Z,19.23
2019-05-13T17:08:42.467Z,19.62
2019-05-13T17:11:11.811Z,19.47
2019-05-13T17:13:42.212Z,20.62
2019-05-13T17:16:10.905Z,20.24
2019-05-13T17:18:41.495Z,20.09
2019-05-13T17:21:09.982Z,20.98
2019-05-13T17:23:38.837Z,20.39
2019-05-13T17:26:07.731Z,20.83
2019-05-13T17:28:36.546Z,21.55
2019-05-13T17:31:05.061Z,20.20
2019-05-13T17:33:33.710Z,21.22
2019-05-13T17:36:02.269Z,21.77
2019-05-13T17:38:32.369Z,21.15
2019-05-13T17:41:02.250Z,21.19
2019-05-13T17:43:31.982Z,21.04
2019-05-13T17:46:00.834Z,21.65
2019-05-13T17:48:32.504Z,21.52
2019-05-13T17:51:01.431Z,22.09
2019-05-13T17:53:32.259Z,23.47
2019-05-13T17:56:02.485Z,23.13
2019-05-13T17:58:31.389Z,22.52
2019-05-13T18:01:01.674Z,23.30
2019-05-13T18:03:32.058Z,22.35
2019-05-13T18:06:02.519Z,23.10
2019-05-13T18:08:32.036Z,23.80
2019-05-13T18:11:02.194Z,23.73
2019-05-13T18:13:31.407Z,24.35
2019-05-13T18:16:02.412Z,23.70
2019-05-13T18:18:40.568Z,24.07
2019-05-13T18:21:01.601Z,24.55
2019-05-13T18:23:30.199Z,24.74
2019-05-13T18:25:58.984Z,25.20
2019-05-13T18:28:31.300Z,25.43
2019-05-13T18:30:57.875Z,25.91
2019-05-13T18:33:26.509Z,25.04
2019-05-13T18:35:55.050Z,25.56
2019-05-13T18:38:23.592Z,25.63
2019-05-13T18:40:52.709Z,25.86
2019-05-13T18:43:21.662Z,25.60
2019-05-13T18:45:52.484Z,25.82
2019-05-13T18:48:21.913Z,26.01
2019-05-13T18:50:52.355Z,26.43
2019-05-13T18:53:21.549Z,26.11
2019-05-13T18:55:52.499Z,26.45
2019-05-13T18:58:22.301Z,26.41
2019-05-13T19:00:52.245Z,26.23
2019-05-13T19:03:21.774Z,26.88
2019-05-13T19:05:50.626Z,26.06
2019-05-13T19:08:21.276Z,26.72
2019-05-13T19:10:49.577Z,26.39
2019-05-13T19:13:18.666Z,26.61
2019-05-13T19:15:48.183Z,26.78
2019-05-13T19:18:16.686Z,26.48
2019-05-13T19:20:45.324Z,26.39
2019-05-13T19:23:13.945Z,26.34
2019-05-13T19:25:42.880Z,26.54
2019-05-13T19:28:11.937Z,26.40
2019-05-13T19:30:41.273Z,26.63
2019-05-13T19:33:12.114Z,26.73
2019-05-13T19:35:42.646Z,26.71
2019-05-13T19:38:12.154Z,26.65
2019-05-13T19:40:41.885Z,27.05
2019-05-13T19:43:11.533Z,27.05
2019-05-13T19:45:41.614Z,27.11
2019-05-13T19:48:11.940Z,27.31
2019-05-13T19:50:41.710Z,27.50
2019-05-13T19:53:12.128Z,27.33
2019-05-13T19:55:41.483Z,27.33
2019-05-13T19:58:12.321Z,27.29
2019-05-13T20:00:42.303Z,27.57
2019-05-13T20:03:11.664Z,27.45
2019-05-13T20:05:41.558Z,27.42
2019-05-13T20:08:10.786Z,27.60
2019-05-13T20:10:39.306Z,27.76
2019-05-13T20:13:11.111Z,27.92
2019-05-13T20:15:41.265Z,27.70
2019-05-13T20:18:12.163Z,27.81
2019-05-13T20:20:42.346Z,27.66
2019-05-13T20:23:12.077Z,27.91
2019-05-13T20:25:41.844Z,27.88
2019-05-13T20:28:11.584Z,27.97
2019-05-13T20:30:41.836Z,27.99
2019-05-13T20:33:12.081Z,27.79
2019-05-13T20:35:42.024Z,27.92
2019-05-13T20:38:11.561Z,27.82
2019-05-13T20:40:41.456Z,27.73
2019-05-13T20:43:11.874Z,27.64
2019-05-13T20:45:42.142Z,27.68
2019-05-13T20:48:11.907Z,27.87
2019-05-13T20:50:41.263Z,27.95
2019-05-13T20:53:11.558Z,28.07
2019-05-13T20:55:41.737Z,27.84
2019-05-13T20:58:12.778Z,27.86
2019-05-13T21:00:42.167Z,27.89
2019-05-13T21:03:11.699Z,27.60
2019-05-13T21:05:41.583Z,27.89
2019-05-13T21:08:10.189Z,27.65
2019-05-13T21:10:38.917Z,27.85
2019-05-13T21:13:07.436Z,28.37
2019-05-13T21:15:35.918Z,28.20
2019-05-13T21:18:04.761Z,28.41
2019-05-13T21:20:33.262Z,28.55
2019-05-13T21:23:02.314Z,28.97
2019-05-13T21:25:31.213Z,28.97
2019-05-13T21:28:01.985Z,32.14
2019-05-13T21:30:29.961Z,32.21
2019-05-13T21:32:58.491Z,33.14
2019-05-13T21:35:27.096Z,31.98
2019-05-13T21:37:55.888Z,31.25
2019-05-13T21:40:24.377Z,30.61
2019-05-13T21:42:53.213Z,30.53
2019-05-13T21:45:21.730Z,29.92
2019-05-13T21:47:50.224Z,30.03
2019-05-13T21:50:31.084Z,30.00
2019-05-13T21:52:51.449Z,30.11
2019-05-13T21:55:21.531Z,29.92
2019-05-13T21:57:49.853Z,29.97
2019-05-13T22:00:23.485Z,29.79
2019-05-13T22:02:51.683Z,29.40
2019-05-13T22:05:22.067Z,29.46
2019-05-13T22:07:50.380Z,29.61
2019-05-13T22:10:18.880Z,29.78
2019-05-13T22:12:47.434Z,30.13
2019-05-13T22:15:15.935Z,30.32
2019-05-13T22:17:44.489Z,30.12
2019-05-13T22:20:12.972Z,29.94
2019-05-13T22:22:41.659Z,30.21
2019-05-13T22:25:12.034Z,30.07
2019-05-13T22:27:41.327Z,30.36
2019-05-13T22:30:11.786Z,30.46
2019-05-13T22:32:41.754Z,30.90
2019-05-13T22:35:11.224Z,30.71
2019-05-13T22:37:39.922Z,30.84
2019-05-13T22:40:11.092Z,31.18
2019-05-13T22:42:41.342Z,30.88
2019-05-13T22:45:11.485Z,31.11
2019-05-13T22:47:41.503Z,31.04
2019-05-13T22:50:11.377Z,30.85
2019-05-13T22:52:41.922Z,31.19
2019-05-13T22:55:11.503Z,31.31
2019-05-13T22:57:41.940Z,31.25
2019-05-13T23:00:11.838Z,31.22
2019-05-13T23:02:42.039Z,31.54
2019-05-13T23:05:11.429Z,31.41
2019-05-13T23:07:40.027Z,31.71
2019-05-13T23:10:08.515Z,31.95
2019-05-13T23:12:37.021Z,31.99
2019-05-13T23:15:06.424Z,32.18
2019-05-13T23:17:35.239Z,31.91
2019-05-13T23:20:03.808Z,32.12
2019-05-13T23:22:32.297Z,32.33
2019-05-13T23:25:01.636Z,32.15
2019-05-13T23:27:31.995Z,32.40
2019-05-13T23:30:01.196Z,32.20
2019-05-13T23:32:32.025Z,32.17
2019-05-13T23:35:02.012Z,32.32
2019-05-13T23:37:31.087Z,32.25
2019-05-13T23:40:01.458Z,32.50
2019-05-13T23:42:31.953Z,32.47
2019-05-13T23:45:00.346Z,32.43
2019-05-13T23:47:31.029Z,32.47
2019-05-13T23:49:59.153Z,32.57
2019-05-13T23:52:27.954Z,32.81
2019-05-13T23:54:56.448Z,32.63
2019-05-13T23:57:24.978Z,32.82
2019-05-13T23:59:53.984Z,32.99
